createdAt,value
2023-02-23T04:57:05.870Z,100422.75
2023-02-23T05:00:09.056Z,100421.78
2023-02-23T05:03:12.181Z,100415.59
2023-02-23T05:06:18.142Z,100415.69
2023-02-23T05:09:20.600Z,100424.47
2023-02-23T05:12:23.213Z,100419.94
2023-02-23T05:15:25.440Z,100428.72
2023-02-23T05:18:28.170Z,100431.34
2023-02-23T05:21:30.659Z,100426.09
2023-02-23T05:24:33.312Z,100428.72
2023-02-23T05:27:36.749Z,100430.50
2023-02-23T05:30:39.355Z,100438.31
2023-02-23T05:33:45.801Z,100438.31
2023-02-23T05:36:48.400Z,100439.50
2023-02-23T05:39:50.624Z,100435.41
2023-02-23T05:42:58.753Z,100431.03
2023-02-23T05:46:01.404Z,100436.09
2023-02-23T05:49:04.111Z,100436.44
2023-02-23T05:52:06.417Z,100434.22
2023-02-23T05:55:11.629Z,100436.19
2023-02-23T05:58:13.720Z,100437.84
2023-02-23T06:01:17.883Z,100448.19
2023-02-23T06:04:23.340Z,100451.28
2023-02-23T06:07:25.551Z,100451.34
2023-02-23T06:10:28.015Z,100454.34
2023-02-23T06:13:31.528Z,100456.94
2023-02-23T06:16:34.054Z,100459.47
2023-02-23T06:19:36.376Z,100463.19
2023-02-23T06:22:38.789Z,100461.75
2023-02-23T06:25:41.788Z,100473.03
2023-02-23T06:28:44.238Z,100477.00
2023-02-23T06:31:46.633Z,100481.50
2023-02-23T06:34:49.130Z,100479.81
2023-02-23T06:37:51.802Z,100480.75
2023-02-23T06:40:54.218Z,100479.78
2023-02-23T06:43:56.477Z,100486.84
2023-02-23T06:46:58.870Z,100494.53
2023-02-23T06:50:02.060Z,100492.34
2023-02-23T06:53:05.029Z,100495.09
2023-02-23T06:56:07.374Z,100501.03
2023-02-23T06:59:09.799Z,100496.00
2023-02-23T07:02:13.628Z,100500.50
2023-02-23T07:05:16.275Z,100499.66
2023-02-23T07:08:19.055Z,100505.81
2023-02-23T07:11:21.678Z,100505.13
2023-02-23T07:14:26.824Z,100506.16
2023-02-23T07:17:29.665Z,100509.47
2023-02-23T07:20:32.844Z,100513.88
2023-02-23T07:23:35.248Z,100508.75
2023-02-23T07:26:37.448Z,100502.69
2023-02-23T07:29:39.977Z,100507.81
2023-02-23T07:32:42.138Z,100511.28
2023-02-23T07:35:45.277Z,100510.66
2023-02-23T07:38:58.921Z,100513.03
2023-02-23T07:42:07.358Z,100512.94
2023-02-23T07:45:17.303Z,100516.47
2023-02-23T07:48:20.645Z,100513.38
2023-02-23T07:51:22.831Z,100516.22
2023-02-23T07:54:26.555Z,100507.66
2023-02-23T07:57:28.743Z,100507.75
2023-02-23T08:00:32.715Z,100507.75
2023-02-23T08:03:35.152Z,100507.03
2023-02-23T08:06:37.360Z,100506.56
2023-02-23T08:09:39.740Z,100514.06
2023-02-23T08:12:41.928Z,100517.53
2023-02-23T08:15:44.403Z,100514.41
2023-02-23T08:18:46.569Z,100512.75
2023-02-23T08:21:49.912Z,100510.12
2023-02-23T08:24:52.249Z,100517.31
2023-02-23T08:27:54.918Z,100514.97
2023-02-23T08:30:57.421Z,100521.97
2023-02-23T08:34:00.230Z,100517.84
2023-02-23T08:37:02.387Z,100522.06
2023-02-23T08:40:05.616Z,100515.47
2023-02-23T08:43:07.733Z,100523.59
2023-02-23T08:46:12.766Z,100521.56
2023-02-23T08:49:14.892Z,100527.06
2023-02-23T08:52:18.072Z,100520.41
2023-02-23T08:55:21.689Z,100524.47
2023-02-23T08:58:24.180Z,100531.50
2023-02-23T09:01:26.284Z,100533.31
2023-02-23T09:04:32.582Z,100527.12
2023-02-23T09:07:36.940Z,100529.91
2023-02-23T09:10:40.299Z,100534.75
2023-02-23T09:13:43.118Z,100529.97
2023-02-23T09:16:46.098Z,100530.81
2023-02-23T09:19:48.860Z,100527.16
2023-02-23T09:22:51.283Z,100533.06
2023-02-23T09:25:53.379Z,100531.38
2023-02-23T09:28:58.570Z,100534.25
2023-02-23T09:32:00.831Z,100528.16
2023-02-23T09:35:05.082Z,100535.34
2023-02-23T09:38:09.110Z,100535.59
2023-02-23T09:41:49.021Z,100532.37
2023-02-23T09:45:03.909Z,100541.75
2023-02-23T09:48:14.313Z,100537.34
2023-02-23T09:51:21.207Z,100539.25
2023-02-23T09:54:26.892Z,100545.19
2023-02-23T09:57:38.783Z,100537.44
2023-02-23T10:00:45.718Z,100541.59
2023-02-23T10:04:01.941Z,100535.25
2023-02-23T10:07:07.170Z,100538.44
2023-02-23T10:10:37.734Z,100529.97
2023-02-23T10:14:09.885Z,100535.97
2023-02-23T10:17:31.650Z,100542.97
2023-02-23T10:20:35.570Z,100537.72
2023-02-23T10:23:42.694Z,100534.88
2023-02-23T10:26:54.096Z,100538.66
2023-02-23T10:34:27.618Z,100542.16
2023-02-23T10:37:30.090Z,100527.16
2023-02-23T10:40:33.951Z,100521.87
2023-02-23T10:43:36.679Z,100519.47
2023-02-23T10:46:40.467Z,100514.13
2023-02-23T10:49:54.429Z,100518.53
2023-02-23T10:53:24.540Z,100511.75
2023-02-23T10:56:34.159Z,100504.00
2023-02-23T10:59:36.399Z,100500.47
2023-02-23T11:02:39.064Z,100505.44
2023-02-23T11:05:50.363Z,100492.47
2023-02-23T11:08:52.787Z,100490.06
2023-02-23T11:12:00.981Z,100489.47
2023-02-23T11:15:38.903Z,100484.09
2023-02-23T11:19:00.281Z,100478.69
2023-02-23T11:22:05.900Z,100481.34
2023-02-23T11:25:45.484Z,100479.72
2023-02-23T11:28:54.494Z,100472.81
2023-02-23T11:31:59.159Z,100473.53
2023-02-23T11:35:21.510Z,100476.06
2023-02-23T11:38:27.499Z,100472.78
2023-02-23T11:41:32.792Z,100467.56
2023-02-23T11:44:34.963Z,100474.50
2023-02-23T11:47:45.054Z,100468.38
2023-02-23T11:50:49.522Z,100466.63
2023-02-23T11:53:52.809Z,100461.13
2023-02-23T11:57:04.138Z,100456.19
2023-02-23T12:00:14.324Z,100454.44
2023-02-23T12:03:22.627Z,100454.44
2023-02-23T12:06:37.660Z,100462.06
2023-02-23T12:09:45.198Z,100457.91
2023-02-23T12:13:02.857Z,100450.75
2023-02-23T12:16:25.742Z,100449.00
2023-02-23T12:19:39.137Z,100443.91
2023-02-23T12:22:53.431Z,100444.69
2023-02-23T12:26:03.262Z,100441.16
2023-02-23T12:29:31.296Z,100437.09
2023-02-23T12:32:58.119Z,100430.06
2023-02-23T12:36:03.066Z,100430.16
2023-02-23T12:39:21.261Z,100425.12
2023-02-23T12:42:37.455Z,100425.97
2023-02-23T12:45:52.888Z,100417.25
2023-02-23T12:49:06.062Z,100410.22
2023-02-23T12:52:16.524Z,100410.06
2023-02-23T12:55:26.580Z,100401.38
2023-02-23T12:58:47.431Z,100404.03
2023-02-23T13:02:00.471Z,100392.94
2023-02-23T13:05:24.328Z,100400.03
2023-02-23T13:08:49.761Z,100392.25
2023-02-23T13:12:07.243Z,100386.13
2023-02-23T13:15:19.587Z,100386.97
2023-02-23T13:18:31.273Z,100387.09
2023-02-23T13:21:42.279Z,100379.25
2023-02-23T13:24:50.689Z,100372.28
2023-02-23T13:27:59.751Z,100373.97
2023-02-23T13:31:05.879Z,100364.41
2023-02-23T13:34:21.517Z,100365.31
2023-02-23T13:37:41.222Z,100368.03
2023-02-23T13:41:03.928Z,100360.22
2023-02-23T13:44:15.316Z,100363.72
2023-02-23T13:48:06.801Z,100358.47
2023-02-23T13:51:23.569Z,100352.25
2023-02-23T13:54:34.726Z,100347.88
2023-02-23T13:57:43.871Z,100356.56
2023-02-23T14:00:54.601Z,100355.81
2023-02-23T14:04:03.071Z,100345.37
2023-02-23T14:07:11.230Z,100348.69
2023-02-23T14:10:23.070Z,100354.91
2023-02-23T14:13:31.873Z,100348.66
2023-02-23T14:16:34.467Z,100348.53
2023-02-23T14:19:40.872Z,100358.06
2023-02-23T14:23:20.315Z,100350.28
2023-02-23T14:26:28.255Z,100348.63
2023-02-23T14:29:34.456Z,100349.59
2023-02-23T14:32:42.371Z,100353.97
2023-02-23T14:35:49.638Z,100354.75
2023-02-23T14:38:54.509Z,100344.34
2023-02-23T14:42:00.063Z,100345.28
2023-02-23T14:45:17.600Z,100348.00
2023-02-23T14:48:22.340Z,100348.72
2023-02-23T14:51:42.064Z,100349.47
2023-02-23T14:54:44.897Z,100342.41
2023-02-23T14:57:47.093Z,100352.87
2023-02-23T15:00:52.005Z,100343.28
2023-02-23T15:04:24.792Z,100341.53
2023-02-23T15:07:32.380Z,100336.19
2023-02-23T15:10:34.582Z,100336.03
2023-02-23T15:13:40.804Z,100342.97
2023-02-23T15:16:44.903Z,100339.34
2023-02-23T15:19:50.140Z,100342.72
2023-02-23T15:22:55.118Z,100336.66
2023-02-23T15:25:57.596Z,100337.41
2023-02-23T15:29:07.067Z,100333.13
2023-02-23T15:32:27.601Z,100332.16
2023-02-23T15:35:32.463Z,100337.16
2023-02-23T15:38:50.773Z,100331.97
2023-02-23T15:41:53.120Z,100330.34
2023-02-23T15:45:01.796Z,100327.59
2023-02-23T15:48:08.212Z,100333.69
2023-02-23T15:51:22.918Z,100331.94
2023-02-23T15:54:32.765Z,100328.44
2023-02-23T15:57:48.523Z,100329.19
2023-02-23T16:01:06.944Z,100329.06
2023-02-23T16:04:12.769Z,100331.81
2023-02-23T16:11:36.782Z,100325.63
2023-02-23T16:14:46.177Z,100331.72
2023-02-23T16:17:57.716Z,100336.84
